createdAt,value
2023-05-20T00:01:12.410Z,6.08
2023-05-20T00:04:24.055Z,4.72
2023-05-20T00:07:34.292Z,4.33
2023-05-20T00:10:47.054Z,5.03
2023-05-20T00:13:57.940Z,4.78
2023-05-20T00:17:09.991Z,5.87
2023-05-20T00:20:25.334Z,5.12
2023-05-20T00:23:36.970Z,5.17
2023-05-20T00:26:45.684Z,4.33
2023-05-20T00:29:56.716Z,4.53
2023-05-20T00:33:10.205Z,4.97
2023-05-20T00:36:23.076Z,4.92
2023-05-20T00:42:43.536Z,4.53
2023-05-20T00:45:55.255Z,4.78
2023-05-20T00:49:03.340Z,5.33
2023-05-20T00:52:15.519Z,4.75
2023-05-20T00:55:26.648Z,3.90
2023-05-20T00:58:37.383Z,4.80
2023-05-20T01:01:49.299Z,4.15
2023-05-20T01:05:01.007Z,5.08
2023-05-20T01:08:13.580Z,3.75
2023-05-20T01:11:25.992Z,4.33
2023-05-20T01:14:37.534Z,3.77
2023-05-20T01:17:49.818Z,4.55
2023-05-20T01:21:02.167Z,4.97
2023-05-20T01:24:14.432Z,3.52
2023-05-20T01:27:28.210Z,4.62
2023-05-20T01:30:41.936Z,3.83
2023-05-20T01:33:54.347Z,4.15
2023-05-20T01:37:03.233Z,4.42
2023-05-20T01:40:18.372Z,4.35
2023-05-20T01:43:27.440Z,4.22
2023-05-20T01:46:41.106Z,4.58
2023-05-20T01:49:55.855Z,4.95
2023-05-20T01:53:08.422Z,4.05
2023-05-20T01:56:20.956Z,4.62
2023-05-20T01:59:31.916Z,4.67
2023-05-20T02:02:43.261Z,4.60
2023-05-20T02:05:51.589Z,4.60
2023-05-20T02:09:02.353Z,4.28
2023-05-20T02:12:15.864Z,3.67
2023-05-20T02:15:30.331Z,5.08
2023-05-20T02:18:41.227Z,3.90
2023-05-20T02:21:54.045Z,4.30
2023-05-20T02:25:05.452Z,3.72
2023-05-20T02:28:17.022Z,3.92
2023-05-20T02:31:28.479Z,4.80
2023-05-20T02:34:39.402Z,5.47
2023-05-20T02:37:50.644Z,3.98
2023-05-20T02:41:03.582Z,4.60
2023-05-20T02:44:13.838Z,4.50
2023-05-20T02:47:25.864Z,4.03
2023-05-20T02:50:38.803Z,4.75
2023-05-20T02:53:49.198Z,3.90
2023-05-20T02:56:59.864Z,4.35
2023-05-20T03:00:15.608Z,3.75
2023-05-20T03:03:28.872Z,4.62
2023-05-20T03:06:43.551Z,4.00
2023-05-20T03:09:57.245Z,4.40
2023-05-20T03:13:09.205Z,4.25
2023-05-20T03:16:21.244Z,4.08
2023-05-20T03:19:34.939Z,4.07
2023-05-20T03:22:44.029Z,3.67
2023-05-20T03:25:52.454Z,4.62
2023-05-20T03:29:02.026Z,4.20
2023-05-20T03:32:15.934Z,3.55
2023-05-20T03:35:27.842Z,4.72
2023-05-20T03:38:40.914Z,4.40
2023-05-20T03:44:55.852Z,4.53
2023-05-20T03:48:05.928Z,3.70
2023-05-20T03:51:15.641Z,4.17
2023-05-20T03:54:25.552Z,4.12
2023-05-20T03:57:35.129Z,4.42
2023-05-20T04:00:46.984Z,3.40
2023-05-20T04:03:57.298Z,4.75
2023-05-20T04:07:10.104Z,4.65
2023-05-20T04:10:21.415Z,4.08
2023-05-20T04:16:46.098Z,4.43
2023-05-20T04:19:57.678Z,4.72
2023-05-20T04:23:08.747Z,5.12
2023-05-20T04:26:19.649Z,4.62
2023-05-20T04:29:34.411Z,4.42
2023-05-20T04:32:46.385Z,4.42
2023-05-20T04:36:01.217Z,4.45
2023-05-20T04:39:13.164Z,5.22
2023-05-20T04:42:24.318Z,4.45
2023-05-20T04:45:38.122Z,3.58
2023-05-20T04:48:50.230Z,4.10
2023-05-20T04:52:03.302Z,4.67
2023-05-20T04:58:26.260Z,4.28
2023-05-20T05:01:37.486Z,5.47
2023-05-20T05:04:47.885Z,4.25
2023-05-20T05:08:01.061Z,5.33
2023-05-20T05:11:11.938Z,4.33
2023-05-20T05:14:19.397Z,5.23
2023-05-20T05:17:31.050Z,3.90
2023-05-20T05:20:40.975Z,5.65
2023-05-20T05:23:51.540Z,4.10
2023-05-20T05:27:02.593Z,5.22
2023-05-20T05:30:18.424Z,4.08
2023-05-20T05:33:30.192Z,4.78
2023-05-20T05:36:40.737Z,5.53
2023-05-20T05:39:49.677Z,5.03
2023-05-20T05:43:01.295Z,5.30
2023-05-20T05:46:12.758Z,4.10
2023-05-20T05:49:22.478Z,4.85
2023-05-20T05:52:35.485Z,3.85
2023-05-20T05:55:46.188Z,4.72
2023-05-20T05:58:58.896Z,5.20
2023-05-20T06:02:12.413Z,5.28
2023-05-20T06:05:26.919Z,4.65
2023-05-20T06:08:40.556Z,4.50
2023-05-20T06:11:50.528Z,4.75
2023-05-20T06:15:04.977Z,4.22
2023-05-20T06:18:14.555Z,5.00
2023-05-20T06:21:26.533Z,5.25
2023-05-20T06:24:40.374Z,5.42
2023-05-20T06:27:53.299Z,4.05
2023-05-20T06:31:05.297Z,5.10
2023-05-20T06:34:13.088Z,4.78
2023-05-20T06:37:27.633Z,4.25
2023-05-20T06:40:40.279Z,5.15
2023-05-20T06:43:53.728Z,4.55
2023-05-20T06:47:06.446Z,3.58
2023-05-20T06:50:19.300Z,4.95
2023-05-20T06:53:32.260Z,4.70
2023-05-20T06:56:43.843Z,4.58
2023-05-20T06:59:55.801Z,5.95
2023-05-20T07:03:07.519Z,4.40
2023-05-20T07:06:17.750Z,4.85
2023-05-20T07:09:27.431Z,5.12
2023-05-20T07:12:40.815Z,5.58
2023-05-20T07:15:54.354Z,4.75
2023-05-20T07:19:03.451Z,4.72
2023-05-20T07:22:15.739Z,4.95
2023-05-20T07:25:27.850Z,5.50
2023-05-20T07:28:39.043Z,4.83
2023-05-20T07:31:52.704Z,4.47
2023-05-20T07:35:04.958Z,4.42
2023-05-20T07:38:16.917Z,5.35
2023-05-20T07:41:30.822Z,4.50
2023-05-20T07:44:42.637Z,4.03
2023-05-20T07:47:52.921Z,4.75
2023-05-20T07:51:04.771Z,4.75
2023-05-20T07:54:13.867Z,4.65
2023-05-20T07:57:27.384Z,4.67
2023-05-20T08:00:43.601Z,5.87
2023-05-20T08:03:54.571Z,4.12
2023-05-20T08:07:08.405Z,4.42
2023-05-20T08:10:20.275Z,5.00
2023-05-20T08:13:28.605Z,5.05
2023-05-20T08:16:40.481Z,5.53
2023-05-20T08:19:52.948Z,4.85
2023-05-20T08:23:02.851Z,4.70
2023-05-20T08:26:13.475Z,5.05
2023-05-20T08:29:25.460Z,4.15
2023-05-20T08:32:36.759Z,4.78
2023-05-20T08:35:45.473Z,4.72
2023-05-20T08:38:58.429Z,4.40
2023-05-20T08:42:11.106Z,3.95
2023-05-20T08:45:19.679Z,4.75
2023-05-20T08:48:32.807Z,4.80
2023-05-20T08:54:56.836Z,3.95
2023-05-20T08:58:07.762Z,4.97
2023-05-20T09:01:20.821Z,4.58
2023-05-20T09:04:34.691Z,4.62
2023-05-20T09:07:44.840Z,4.25
2023-05-20T09:10:55.132Z,4.42
2023-05-20T09:14:07.361Z,4.15
2023-05-20T09:17:21.106Z,3.63
2023-05-20T09:20:32.263Z,4.33
2023-05-20T09:23:46.410Z,4.17
2023-05-20T09:26:56.785Z,4.30
2023-05-20T09:30:11.300Z,5.15
2023-05-20T09:33:23.715Z,4.55
2023-05-20T09:36:38.098Z,5.00
2023-05-20T09:39:52.859Z,4.55
2023-05-20T09:43:04.960Z,4.03
2023-05-20T09:46:14.775Z,3.93
2023-05-20T09:49:24.970Z,5.20
2023-05-20T09:52:34.834Z,4.47
2023-05-20T09:55:46.373Z,3.60
2023-05-20T09:58:58.128Z,5.42
2023-05-20T10:02:08.439Z,4.05
2023-05-20T10:05:22.370Z,3.67
2023-05-20T10:08:51.886Z,3.87
2023-05-20T10:12:04.204Z,4.33
2023-05-20T10:15:17.987Z,3.72
2023-05-20T10:18:32.718Z,3.60
2023-05-20T10:21:40.930Z,3.70
2023-05-20T10:24:52.000Z,4.42
2023-05-20T10:28:14.211Z,4.53
2023-05-20T10:31:26.223Z,3.45
2023-05-20T10:34:38.175Z,4.05
2023-05-20T10:37:50.800Z,4.60
2023-05-20T10:41:04.267Z,3.33
2023-05-20T10:44:16.868Z,4.15
2023-05-20T10:47:27.756Z,4.42
2023-05-20T10:50:40.854Z,3.92
2023-05-20T10:57:01.065Z,4.50
2023-05-20T11:00:20.064Z,4.42
2023-05-20T11:03:32.869Z,3.92
2023-05-20T11:06:47.387Z,3.55
2023-05-20T11:09:58.139Z,4.12
2023-05-20T11:13:10.098Z,4.55
2023-05-20T11:16:20.740Z,3.37
2023-05-20T11:19:30.250Z,4.20
2023-05-20T11:22:42.920Z,3.00
2023-05-20T11:25:55.952Z,3.17
2023-05-20T11:29:07.805Z,3.37
2023-05-20T11:32:20.692Z,5.40
2023-05-20T11:35:29.478Z,3.47
2023-05-20T11:38:41.003Z,3.83
2023-05-20T11:41:52.618Z,3.25
2023-05-20T11:45:04.137Z,4.20
2023-05-20T11:48:16.118Z,4.08
2023-05-20T11:51:29.216Z,5.05
2023-05-20T11:57:48.134Z,3.60
2023-05-20T12:01:09.157Z,4.10
2023-05-20T12:04:10.248Z,4.20
2023-05-20T12:07:21.390Z,4.35
2023-05-20T12:10:29.575Z,3.12
2023-05-20T12:13:39.628Z,4.45
2023-05-20T12:16:51.495Z,3.27
2023-05-20T12:20:07.423Z,3.95
2023-05-20T12:23:21.675Z,3.58
2023-05-20T12:26:34.505Z,3.37
2023-05-20T12:29:47.042Z,3.62
2023-05-20T12:32:56.401Z,3.10
2023-05-20T12:36:09.004Z,2.10
2023-05-20T12:39:20.226Z,3.22
2023-05-20T12:42:30.207Z,2.77
2023-05-20T12:45:43.837Z,3.30
2023-05-20T12:48:58.306Z,3.35
2023-05-20T12:52:21.897Z,3.08
2023-05-20T12:55:25.762Z,2.98
2023-05-20T12:58:34.912Z,3.17
2023-05-20T13:01:44.649Z,3.90
2023-05-20T13:04:54.617Z,2.33
2023-05-20T13:08:04.851Z,2.92
2023-05-20T13:11:16.436Z,4.40
2023-05-20T13:14:27.346Z,2.75
2023-05-20T13:17:40.954Z,2.83
2023-05-20T13:20:52.263Z,3.35
2023-05-20T13:24:03.371Z,2.25
2023-05-20T13:27:15.444Z,3.45
2023-05-20T13:30:28.729Z,3.80
2023-05-20T13:33:40.494Z,4.37
2023-05-20T13:36:52.416Z,3.42
2023-05-20T13:40:04.339Z,2.92
2023-05-20T13:43:14.222Z,3.05
2023-05-20T13:46:21.773Z,3.58
2023-05-20T13:49:33.688Z,3.55
2023-05-20T13:52:43.730Z,3.45
2023-05-20T13:55:53.099Z,4.25
2023-05-20T13:59:04.081Z,3.40
2023-05-20T14:02:15.058Z,3.35
2023-05-20T14:08:40.462Z,2.93
2023-05-20T14:11:52.060Z,3.52
2023-05-20T14:15:03.874Z,4.45
2023-05-20T14:18:13.075Z,4.85
2023-05-20T14:21:23.400Z,4.28
2023-05-20T14:24:34.843Z,4.12
2023-05-20T14:27:47.145Z,4.47
2023-05-20T14:30:59.900Z,4.45
2023-05-20T14:34:09.015Z,4.47
2023-05-20T14:37:19.701Z,3.80
2023-05-20T14:40:32.794Z,4.00
2023-05-20T14:43:44.744Z,3.85
2023-05-20T14:46:55.646Z,4.97
2023-05-20T14:50:03.252Z,4.25
2023-05-20T14:53:14.247Z,4.85
2023-05-20T14:56:25.372Z,5.75
2023-05-20T14:59:37.886Z,4.70
2023-05-20T15:02:47.847Z,3.87
2023-05-20T15:05:59.658Z,4.00
2023-05-20T15:09:12.013Z,5.42
2023-05-20T15:12:23.900Z,6.08
2023-05-20T15:15:36.232Z,4.20
2023-05-20T15:18:47.707Z,5.62
2023-05-20T15:21:57.864Z,4.22
2023-05-20T15:25:10.830Z,6.20
2023-05-20T15:28:22.245Z,5.78
2023-05-20T15:31:32.206Z,5.58
2023-05-20T15:34:43.707Z,4.90
2023-05-20T15:37:54.735Z,5.17
2023-05-20T15:41:05.336Z,6.28
2023-05-20T15:44:15.099Z,5.28
2023-05-20T15:47:29.424Z,5.80
2023-05-20T15:50:40.493Z,6.40
2023-05-20T15:53:49.726Z,4.85
2023-05-20T15:57:01.519Z,7.03
2023-05-20T16:00:15.543Z,5.40
2023-05-20T16:03:27.726Z,5.75
2023-05-20T16:06:41.660Z,5.50
2023-05-20T16:09:51.776Z,5.70
2023-05-20T16:13:03.542Z,6.62
2023-05-20T16:16:15.216Z,6.70
2023-05-20T16:19:29.753Z,6.45
2023-05-20T16:22:39.225Z,6.75
2023-05-20T16:25:49.483Z,7.03
2023-05-20T16:29:01.157Z,6.42
2023-05-20T16:32:11.663Z,6.60
2023-05-20T16:35:22.116Z,6.30
2023-05-20T16:38:34.966Z,6.80
2023-05-20T16:41:46.921Z,6.87
2023-05-20T16:44:58.382Z,7.00
2023-05-20T16:48:11.921Z,7.08
2023-05-20T16:51:23.653Z,7.37
2023-05-20T16:54:38.883Z,6.87
2023-05-20T16:57:53.732Z,6.72
2023-05-20T17:01:05.184Z,7.30
2023-05-20T17:04:14.956Z,6.47
2023-05-20T17:07:23.922Z,6.08
2023-05-20T17:10:34.787Z,7.55
2023-05-20T17:13:45.931Z,6.87
2023-05-20T17:16:57.024Z,6.75
2023-05-20T17:20:06.010Z,6.78
2023-05-20T17:23:16.595Z,6.12
2023-05-20T17:26:28.393Z,8.53
2023-05-20T17:29:40.449Z,7.85
2023-05-20T17:32:54.037Z,7.85
2023-05-20T17:36:03.694Z,7.30
2023-05-20T17:39:14.131Z,6.05
2023-05-20T17:42:26.579Z,7.25
2023-05-20T17:45:37.304Z,6.15
2023-05-20T17:48:48.038Z,6.25
2023-05-20T17:52:00.739Z,7.50
2023-05-20T17:55:13.497Z,7.15
2023-05-20T17:58:27.453Z,6.37
2023-05-20T18:01:37.839Z,5.97
2023-05-20T18:04:49.611Z,6.55
2023-05-20T18:07:59.568Z,7.95
2023-05-20T18:11:10.942Z,6.62
2023-05-20T18:14:23.881Z,5.90
2023-05-20T18:17:36.331Z,7.55
2023-05-20T18:23:52.251Z,6.85
2023-05-20T18:27:02.618Z,6.33
2023-05-20T18:30:16.240Z,5.75
2023-05-20T18:33:25.277Z,8.25
2023-05-20T18:36:35.597Z,6.78
2023-05-20T18:39:44.931Z,7.25
2023-05-20T18:42:57.000Z,6.92
2023-05-20T18:46:06.562Z,6.28
2023-05-20T18:49:15.010Z,5.92
2023-05-20T18:52:25.243Z,6.97
2023-05-20T18:55:36.122Z,5.72
2023-05-20T18:58:48.567Z,5.83
2023-05-20T19:01:59.808Z,6.83
2023-05-20T19:05:13.119Z,6.00
2023-05-20T19:08:24.865Z,6.62
2023-05-20T19:11:39.566Z,5.80
2023-05-20T19:14:48.926Z,6.67
2023-05-20T19:18:00.874Z,6.45
2023-05-20T19:21:15.253Z,6.17
2023-05-20T19:24:25.468Z,7.15
2023-05-20T19:27:36.339Z,5.35
2023-05-20T19:30:46.207Z,5.95
2023-05-20T19:33:57.108Z,5.37
2023-05-20T19:37:08.207Z,5.35
2023-05-20T19:40:23.136Z,5.12
2023-05-20T19:43:34.796Z,5.30
2023-05-20T19:46:47.920Z,5.15
2023-05-20T19:53:08.694Z,6.62
2023-05-20T19:56:20.092Z,6.08
2023-05-20T19:59:30.746Z,7.33
2023-05-20T20:02:40.813Z,4.80
2023-05-20T20:05:51.724Z,5.72
2023-05-20T20:09:02.900Z,5.72
2023-05-20T20:12:12.156Z,5.47
2023-05-20T20:15:23.310Z,5.85
2023-05-20T20:18:34.569Z,6.03
2023-05-20T20:21:44.761Z,5.25
2023-05-20T20:24:53.706Z,4.90
2023-05-20T20:28:04.313Z,5.47
2023-05-20T20:31:16.092Z,5.70
2023-05-20T20:34:27.781Z,6.05
2023-05-20T20:37:39.971Z,6.53
2023-05-20T20:40:50.392Z,4.40
2023-05-20T20:44:04.315Z,5.42
2023-05-20T20:47:14.897Z,5.45
2023-05-20T20:50:22.494Z,6.12
2023-05-20T20:53:32.608Z,5.67
2023-05-20T20:56:42.759Z,4.78
2023-05-20T20:59:54.036Z,6.25
2023-05-20T21:03:06.728Z,6.03
2023-05-20T21:06:16.521Z,6.83
2023-05-20T21:09:26.632Z,4.92
2023-05-20T21:12:38.918Z,5.30
2023-05-20T21:15:51.816Z,4.53
2023-05-20T21:22:11.015Z,6.25
2023-05-20T21:25:21.211Z,4.78
2023-05-20T21:28:34.791Z,5.92
2023-05-20T21:31:45.705Z,5.58
2023-05-20T21:34:56.827Z,4.58
2023-05-20T21:38:08.904Z,5.35
2023-05-20T21:41:19.508Z,4.65
2023-05-20T21:44:32.028Z,6.10
2023-05-20T21:47:44.651Z,4.60
2023-05-20T21:50:56.702Z,5.45
2023-05-20T21:54:05.960Z,4.62
2023-05-20T21:57:18.060Z,4.80
2023-05-20T22:00:29.113Z,5.00
2023-05-20T22:03:38.623Z,5.75
2023-05-20T22:06:52.705Z,5.60
2023-05-20T22:10:05.972Z,4.70
2023-05-20T22:13:16.488Z,5.05
2023-05-20T22:16:26.247Z,5.72
2023-05-20T22:19:35.871Z,4.87
2023-05-20T22:22:46.346Z,4.25
2023-05-20T22:25:56.304Z,4.72
2023-05-20T22:29:05.303Z,5.00
2023-05-20T22:32:16.227Z,5.75
2023-05-20T22:35:26.124Z,4.97
2023-05-20T22:38:40.402Z,6.10
2023-05-20T22:41:54.858Z,5.08
2023-05-20T22:45:07.685Z,4.58
2023-05-20T22:48:18.165Z,5.15
2023-05-20T22:51:29.176Z,4.78
2023-05-20T22:54:39.696Z,4.17
2023-05-20T22:57:50.704Z,5.47
2023-05-20T23:01:03.465Z,4.83
2023-05-20T23:04:15.653Z,4.33
2023-05-20T23:07:25.395Z,4.63
2023-05-20T23:10:38.823Z,4.58
2023-05-20T23:13:48.329Z,4.42
2023-05-20T23:16:58.227Z,5.40
2023-05-20T23:20:12.654Z,5.12
2023-05-20T23:23:31.236Z,5.10
2023-05-20T23:26:39.678Z,5.05
2023-05-20T23:29:51.627Z,4.60
2023-05-20T23:33:04.450Z,4.75
2023-05-20T23:36:15.579Z,4.97
2023-05-20T23:39:27.393Z,4.83
2023-05-20T23:42:37.445Z,4.47
2023-05-20T23:45:47.843Z,5.50
2023-05-20T23:48:57.600Z,5.80
2023-05-20T23:52:07.458Z,5.10
2023-05-20T23:55:20.775Z,4.65
2023-05-20T23:58:31.726Z,5.03
